Terminal Aerodrome Forecast
Issued by NWS

Home | Current Version | Previous Version | Text Only | Print | Product List | Glossary On
Versions: 1 2 3 4 5 6 7 8 9 10 11 12 13 14
459
FTUS43 KGRB 311720
TAFAUW
TAF
KAUW 311720Z 3118/0118 12010G16KT P6SM SCT045 BKN100
      TEMPO 3119/3123 4SM -TSRA BKN045CB
     FM010100 15007KT P6SM VCSH SCT025 OVC040
      TEMPO 0101/0105 3SM TSRA BR BKN020CB
     FM010800 14006KT 4SM BR SCT010 OVC020
     FM011500 19010G17KT P6SM SCT025=

USA.gov is the U.S. government's official web portal to all federal, state and local government web resources and services.